Main page
METAR-TAF:

METAR-TAF

Airports :

Somerset Airport

Somerville, New Jersey, United States

latitude: 40-37-26N, longitude: 074-40-10W, elevation: 105 ft

Current weather observation

The report was made 23 minutes ago, at 17:53 UTC
Wind 12 mph from the West with gusts up to 35 mph, varying between West/Southwest and Northwest
Temperature 39°F
Humidity 44%
Pressure 29.60 in. Hg
Visibility: 10 miles
Overcast at a height of 5500 ft

METAR: KSMQ 271753Z AUTO 28010G30KT 250V320 10SM OVC055 04/M07 A2960 RMK AO2 PK WND 29030/1657 SLP024 60000 T00441067 10050 20028 51017

Time: 13:16 (18:16 UTC)


TAF: missing

Weather observations and forecasts of more than 4000 airports (METAR and TAF reports).

The available stations are represented by yellow and red dots on the map.

Hover mouse over dot to see the name of the station.

Then click to see weather observations and forecasts.

To change the map : click on the green buttons with a black cross to zoom in, on the green button with a dash to zoom out, or on the green arrows for adjacent maps.


METAR-TAF: